Time;durP1;ratioP1;P1;durP2;ratioP2;P2;SDS_P1;SDS_P2;PMS_P1;PMS_P2;Temp;Humidity;BMP_temperature;BMP_pressure;BME280_temperature;BME280_humidity;BME280_pressure;Samples;Min_cycle;Max_cycle;Signal;HPM_P1;HPM_P2
2023/08/17 00:00:18;;;;;;;4.47;1.40;;;;;;;;;;5024074;28;20386;-77
2023/08/17 00:02:43;;;;;;;4.93;1.52;;;;;;;;;;5009246;28;20036;-77
2023/08/17 00:05:08;;;;;;;5.40;1.33;;;;;;;;;;5008454;28;20029;-76
2023/08/17 00:07:34;;;;;;;5.90;1.70;;;;;;;;;;5010310;28;20025;-77
2023/08/17 00:10:00;;;;;;;2.30;1.20;;;;;;;;;;5006573;28;20047;-77
2023/08/17 00:12:25;;;;;;;2.58;1.38;;;;;;;;;;5006104;28;20074;-76
2023/08/17 00:14:51;;;;;;;3.60;1.38;;;;;;;;;;5013141;28;20067;-77
2023/08/17 00:17:17;;;;;;;2.92;1.20;;;;;;;;;;5009466;28;20029;-78
2023/08/17 00:19:42;;;;;;;6.80;1.50;;;;;;;;;;5020177;28;20478;-77
2023/08/17 00:22:08;;;;;;;3.90;1.40;;;;;;;;;;5014322;28;20032;-83
2023/08/17 00:24:33;;;;;;;3.75;1.30;;;;;;;;;;5007657;28;20059;-83
2023/08/17 00:26:59;;;;;;;2.83;1.15;;;;;;;;;;5009674;28;20064;-84
2023/08/17 00:29:24;;;;;;;3.05;1.30;;;;;;;;;;5007149;28;20029;-80
2023/08/17 00:31:49;;;;;;;3.15;1.58;;;;;;;;;;5004662;28;20028;-83
2023/08/17 00:34:15;;;;;;;4.28;1.73;;;;;;;;;;5014683;28;20025;-83
2023/08/17 00:36:40;;;;;;;3.15;1.45;;;;;;;;;;5005542;28;20034;-84
2023/08/17 00:39:06;;;;;;;3.90;1.40;;;;;;;;;;5007100;28;20101;-83
2023/08/17 00:41:31;;;;;;;3.60;1.30;;;;;;;;;;5009887;28;20608;-75
2023/08/17 00:43:57;;;;;;;3.35;1.40;;;;;;;;;;5007758;28;20037;-76
2023/08/17 00:46:23;;;;;;;3.05;1.40;;;;;;;;;;5010792;28;20061;-76
2023/08/17 00:48:49;;;;;;;2.40;1.27;;;;;;;;;;5007789;28;20032;-76
2023/08/17 00:51:15;;;;;;;4.07;1.63;;;;;;;;;;5005200;28;20097;-76
2023/08/17 00:53:41;;;;;;;5.22;1.40;;;;;;;;;;5007681;28;20502;-76
2023/08/17 00:56:07;;;;;;;3.42;1.20;;;;;;;;;;5009969;28;20069;-75
2023/08/17 00:58:32;;;;;;;3.30;1.50;;;;;;;;;;5009969;28;20065;-80
2023/08/17 01:00:58;;;;;;;4.88;1.40;;;;;;;;;;5026185;28;20041;-75
2023/08/17 01:03:25;;;;;;;4.50;1.77;;;;;;;;;;5007884;28;20496;-76
2023/08/17 01:05:50;;;;;;;3.92;1.55;;;;;;;;;;5005998;28;20028;-76
2023/08/17 01:08:16;;;;;;;3.35;1.20;;;;;;;;;;5007315;28;20029;-76
2023/08/17 01:10:48;;;;;;;3.83;1.30;;;;;;;;;;5008540;28;20025;-77
2023/08/17 01:13:24;;;;;;;4.30;2.27;;;;;;;;;;5011017;28;20053;-76
2023/08/17 01:15:53;;;;;;;2.88;1.20;;;;;;;;;;5007710;28;20029;-76
2023/08/17 01:18:31;;;;;;;2.65;1.33;;;;;;;;;;5004780;28;20474;-77
2023/08/17 01:20:57;;;;;;;4.13;1.50;;;;;;;;;;5000978;28;20037;-76
2023/08/17 01:23:22;;;;;;;3.80;1.42;;;;;;;;;;5008673;28;20037;-76
2023/08/17 01:25:48;;;;;;;3.42;1.42;;;;;;;;;;5009347;28;20429;-75
2023/08/17 01:28:13;;;;;;;4.82;1.25;;;;;;;;;;5011114;28;20409;-76
2023/08/17 01:31:05;;;;;;;3.67;1.40;;;;;;;;;;5009236;28;20112;-75
2023/08/17 01:33:39;;;;;;;6.85;1.48;;;;;;;;;;5004611;28;20500;-81
2023/08/17 01:36:16;;;;;;;2.72;1.40;;;;;;;;;;5009662;28;20029;-82
2023/08/17 01:38:43;;;;;;;4.45;1.60;;;;;;;;;;4999119;28;20026;-83
2023/08/17 01:41:15;;;;;;;3.08;1.30;;;;;;;;;;5008264;28;20029;-83
2023/08/17 01:43:47;;;;;;;3.70;1.52;;;;;;;;;;5001675;28;20022;-82
2023/08/17 01:46:15;;;;;;;4.18;1.45;;;;;;;;;;5007604;28;20152;-83
2023/08/17 01:48:41;;;;;;;2.38;1.25;;;;;;;;;;5005529;28;20120;-83
2023/08/17 01:51:06;;;;;;;2.55;1.10;;;;;;;;;;5008921;28;20076;-79
2023/08/17 01:53:32;;;;;;;3.35;1.30;;;;;;;;;;5006644;28;20026;-77
2023/08/17 01:55:57;;;;;;;3.85;1.20;;;;;;;;;;5009704;28;20084;-77
2023/08/17 01:58:22;;;;;;;1.70;1.08;;;;;;;;;;5013778;28;20021;-76
2023/08/17 02:00:48;;;;;;;2.72;1.40;;;;;;;;;;5011932;28;20443;-76
2023/08/17 02:03:13;;;;;;;4.93;1.45;;;;;;;;;;5008748;28;20082;-76
2023/08/17 02:05:39;;;;;;;2.60;1.17;;;;;;;;;;5008191;28;20032;-77
2023/08/17 02:08:04;;;;;;;5.10;1.30;;;;;;;;;;5010011;28;20061;-75
2023/08/17 02:10:29;;;;;;;2.70;1.10;;;;;;;;;;5013585;28;20053;-76
2023/08/17 02:12:55;;;;;;;4.88;1.50;;;;;;;;;;5009943;28;20044;-75
2023/08/17 02:15:20;;;;;;;3.38;1.30;;;;;;;;;;5011060;28;20030;-75
2023/08/17 02:17:45;;;;;;;5.43;1.40;;;;;;;;;;5010425;28;20032;-76
2023/08/17 02:20:11;;;;;;;3.47;1.20;;;;;;;;;;5010813;28;20014;-77
2023/08/17 02:22:36;;;;;;;3.40;1.73;;;;;;;;;;5009884;28;20115;-76
2023/08/17 02:25:02;;;;;;;5.15;1.30;;;;;;;;;;5017002;28;20042;-76
2023/08/17 02:27:30;;;;;;;2.60;1.10;;;;;;;;;;5013008;28;20029;-76
2023/08/17 02:29:56;;;;;;;5.35;1.67;;;;;;;;;;5005309;28;20371;-76
2023/08/17 02:32:21;;;;;;;2.35;1.20;;;;;;;;;;5011549;28;20088;-75
2023/08/17 02:34:47;;;;;;;2.60;1.20;;;;;;;;;;5004740;28;20032;-77
2023/08/17 02:37:12;;;;;;;3.53;1.27;;;;;;;;;;5024109;28;20057;-76
2023/08/17 02:39:37;;;;;;;3.67;1.85;;;;;;;;;;5007720;28;20022;-76
2023/08/17 02:42:03;;;;;;;2.78;1.30;;;;;;;;;;5008525;28;20037;-77
2023/08/17 02:44:28;;;;;;;2.53;1.20;;;;;;;;;;5007674;28;20482;-75
2023/08/17 02:46:54;;;;;;;3.42;1.30;;;;;;;;;;5009145;28;20022;-76
2023/08/17 02:49:20;;;;;;;3.05;1.20;;;;;;;;;;5006547;28;20084;-77
2023/08/17 02:51:45;;;;;;;2.63;1.10;;;;;;;;;;5016054;28;20025;-77
2023/08/17 02:54:10;;;;;;;3.70;1.35;;;;;;;;;;5009822;28;20030;-75
2023/08/17 02:56:36;;;;;;;2.75;1.20;;;;;;;;;;5008738;28;20393;-76
2023/08/17 02:59:01;;;;;;;2.45;1.10;;;;;;;;;;5005443;28;20022;-75
2023/08/17 03:01:27;;;;;;;4.53;1.17;;;;;;;;;;5007895;28;20042;-81
2023/08/17 03:03:52;;;;;;;2.95;1.30;;;;;;;;;;5002678;28;20556;-84
2023/08/17 03:06:17;;;;;;;2.28;1.23;;;;;;;;;;5002062;28;20033;-80
2023/08/17 03:08:43;;;;;;;4.22;1.30;;;;;;;;;;5002551;28;20159;-83
2023/08/17 03:11:09;;;;;;;3.53;1.15;;;;;;;;;;5023221;28;20033;-84
2023/08/17 03:13:35;;;;;;;4.47;1.60;;;;;;;;;;5006195;28;20088;-85
2023/08/17 03:16:00;;;;;;;3.00;1.48;;;;;;;;;;5003206;28;20438;-81
2023/08/17 03:18:25;;;;;;;2.47;1.30;;;;;;;;;;5003087;28;20112;-82
2023/08/17 03:20:51;;;;;;;3.88;1.20;;;;;;;;;;5018555;28;20513;-81
2023/08/17 03:23:16;;;;;;;4.30;1.48;;;;;;;;;;5003007;28;20025;-83
2023/08/17 03:25:42;;;;;;;4.85;1.52;;;;;;;;;;5004765;28;20041;-84
2023/08/17 03:28:07;;;;;;;2.88;1.40;;;;;;;;;;4999994;28;20029;-81
2023/08/17 03:30:33;;;;;;;5.22;1.52;;;;;;;;;;5003232;28;20101;-84
2023/08/17 03:32:58;;;;;;;3.05;1.20;;;;;;;;;;5001813;28;20034;-81
2023/08/17 03:35:23;;;;;;;5.35;2.05;;;;;;;;;;5002060;28;20029;-84
2023/08/17 03:37:49;;;;;;;6.18;1.60;;;;;;;;;;5004652;28;20498;-83
2023/08/17 03:40:14;;;;;;;2.65;1.40;;;;;;;;;;5004458;28;20647;-80
2023/08/17 03:42:41;;;;;;;3.55;1.27;;;;;;;;;;5003598;28;20512;-84
2023/08/17 03:45:07;;;;;;;3.95;1.27;;;;;;;;;;4998501;28;20033;-80
2023/08/17 03:47:32;;;;;;;2.92;1.35;;;;;;;;;;4999255;28;20030;-84
2023/08/17 03:49:58;;;;;;;3.40;1.52;;;;;;;;;;4998826;28;20509;-83
2023/08/17 03:52:23;;;;;;;2.97;1.38;;;;;;;;;;5004851;28;20489;-82
2023/08/17 03:54:48;;;;;;;3.10;1.20;;;;;;;;;;5006179;28;20528;-80
2023/08/17 03:57:14;;;;;;;3.30;1.50;;;;;;;;;;5005698;28;20026;-82
2023/08/17 03:59:41;;;;;;;4.32;1.50;;;;;;;;;;5014919;28;20096;-82
2023/08/17 04:02:06;;;;;;;4.30;1.42;;;;;;;;;;5005326;28;20030;-81
2023/08/17 04:04:32;;;;;;;5.38;1.48;;;;;;;;;;5006627;28;20029;-82
2023/08/17 04:06:57;;;;;;;2.58;1.65;;;;;;;;;;5010243;28;21953;-82
2023/08/17 04:09:23;;;;;;;4.40;1.30;;;;;;;;;;5006304;28;20022;-82
2023/08/17 04:11:48;;;;;;;4.13;1.30;;;;;;;;;;5012007;28;20025;-77
2023/08/17 04:14:14;;;;;;;3.97;1.50;;;;;;;;;;5004907;28;20036;-76
2023/08/17 04:16:39;;;;;;;6.03;1.58;;;;;;;;;;5007414;28;20029;-77
2023/08/17 04:19:05;;;;;;;4.20;1.35;;;;;;;;;;5014919;28;20473;-76
2023/08/17 04:21:30;;;;;;;3.17;1.30;;;;;;;;;;4999954;28;20487;-75
2023/08/17 04:23:55;;;;;;;3.20;1.40;;;;;;;;;;5018715;28;20036;-76
2023/08/17 04:26:21;;;;;;;2.25;1.15;;;;;;;;;;4995888;28;20030;-76
2023/08/17 04:28:46;;;;;;;2.65;1.30;;;;;;;;;;5007259;28;20080;-75
2023/08/17 04:31:12;;;;;;;2.38;1.10;;;;;;;;;;5010366;28;20509;-76
2023/08/17 04:33:37;;;;;;;6.07;1.40;;;;;;;;;;5005536;28;20120;-79
2023/08/17 04:36:03;;;;;;;2.13;1.20;;;;;;;;;;5006323;28;20060;-77
2023/08/17 04:38:28;;;;;;;4.57;1.20;;;;;;;;;;5007867;28;20505;-76
2023/08/17 04:40:54;;;;;;;3.22;1.42;;;;;;;;;;5005948;28;20034;-76
2023/08/17 04:43:19;;;;;;;3.75;1.60;;;;;;;;;;5008175;28;20080;-76
2023/08/17 04:45:47;;;;;;;2.58;1.25;;;;;;;;;;5004026;28;20109;-76
2023/08/17 04:48:13;;;;;;;4.38;1.40;;;;;;;;;;5001366;28;20151;-76
2023/08/17 04:50:38;;;;;;;4.55;1.40;;;;;;;;;;5008027;28;20658;-76
2023/08/17 04:53:03;;;;;;;2.42;1.20;;;;;;;;;;5005782;28;20048;-76
2023/08/17 04:55:29;;;;;;;2.63;1.40;;;;;;;;;;4998484;28;20393;-79
2023/08/17 04:57:55;;;;;;;2.25;1.30;;;;;;;;;;4997966;28;20026;-76
2023/08/17 05:00:25;;;;;;;3.22;1.30;;;;;;;;;;5005116;28;20101;-76
2023/08/17 05:02:51;;;;;;;3.30;1.40;;;;;;;;;;5023340;28;20038;-82
2023/08/17 05:05:16;;;;;;;3.22;1.30;;;;;;;;;;5011687;28;20036;-82
2023/08/17 05:07:42;;;;;;;3.13;1.30;;;;;;;;;;5008665;28;20033;-83
2023/08/17 05:10:07;;;;;;;3.78;1.48;;;;;;;;;;5008645;28;20037;-81
2023/08/17 05:12:33;;;;;;;2.47;1.13;;;;;;;;;;5007786;28;20080;-82
2023/08/17 05:14:58;;;;;;;2.75;1.40;;;;;;;;;;5010924;28;20022;-82
2023/08/17 05:17:24;;;;;;;2.78;1.20;;;;;;;;;;5005978;28;20034;-82
2023/08/17 05:19:49;;;;;;;3.65;1.40;;;;;;;;;;5002218;28;20061;-81
2023/08/17 05:22:15;;;;;;;4.40;1.50;;;;;;;;;;5010651;28;20030;-84
2023/08/17 05:24:41;;;;;;;2.85;1.25;;;;;;;;;;5007586;28;20037;-83
2023/08/17 05:27:06;;;;;;;2.65;1.27;;;;;;;;;;5007068;28;20034;-84
2023/08/17 05:29:32;;;;;;;4.05;1.38;;;;;;;;;;5006070;28;20164;-81
2023/08/17 05:31:58;;;;;;;2.60;1.10;;;;;;;;;;5008161;28;20037;-83
2023/08/17 05:34:23;;;;;;;2.22;1.23;;;;;;;;;;5008100;28;20042;-83
2023/08/17 05:36:49;;;;;;;2.92;1.42;;;;;;;;;;5024764;28;20037;-83
2023/08/17 05:39:14;;;;;;;3.72;1.20;;;;;;;;;;5008064;28;20022;-84
2023/08/17 05:41:40;;;;;;;3.67;1.55;;;;;;;;;;5014707;28;20048;-84
2023/08/17 05:44:06;;;;;;;2.63;1.20;;;;;;;;;;5005579;28;20034;-84
2023/08/17 05:46:32;;;;;;;4.40;1.40;;;;;;;;;;5007040;28;20393;-85
2023/08/17 05:48:59;;;;;;;3.25;1.30;;;;;;;;;;5007917;28;20083;-84
2023/08/17 05:51:24;;;;;;;4.50;1.35;;;;;;;;;;5006091;28;20402;-83
2023/08/17 05:53:50;;;;;;;3.20;1.20;;;;;;;;;;5008077;28;20033;-83
2023/08/17 05:56:15;;;;;;;3.28;1.20;;;;;;;;;;5017542;28;20040;-82
2023/08/17 05:58:40;;;;;;;2.83;1.30;;;;;;;;;;5025416;28;20030;-84
2023/08/17 06:01:10;;;;;;;3.75;1.40;;;;;;;;;;5007074;28;20057;-84
2023/08/17 06:03:37;;;;;;;3.08;1.23;;;;;;;;;;5000149;28;20036;-82
2023/08/17 06:06:03;;;;;;;2.80;1.20;;;;;;;;;;5004407;28;20025;-84
2023/08/17 06:08:29;;;;;;;3.60;1.30;;;;;;;;;;5008535;28;20022;-82
2023/08/17 06:10:55;;;;;;;3.78;1.30;;;;;;;;;;5007554;28;20393;-83
2023/08/17 06:13:21;;;;;;;4.47;1.85;;;;;;;;;;5006903;28;20037;-82
2023/08/17 06:15:46;;;;;;;4.45;1.40;;;;;;;;;;5008132;28;20079;-82
2023/08/17 06:18:12;;;;;;;3.13;1.35;;;;;;;;;;5009102;28;20021;-84
2023/08/17 06:20:37;;;;;;;3.17;1.30;;;;;;;;;;5006448;28;20374;-82
2023/08/17 06:23:04;;;;;;;2.00;1.00;;;;;;;;;;5000948;28;20389;-83
2023/08/17 06:25:29;;;;;;;4.88;1.70;;;;;;;;;;5036579;28;20128;-83
2023/08/17 06:27:55;;;;;;;4.32;1.23;;;;;;;;;;5013680;28;20446;-84
2023/08/17 06:30:21;;;;;;;3.15;1.38;;;;;;;;;;5006143;28;20030;-82
2023/08/17 06:32:46;;;;;;;2.63;1.40;;;;;;;;;;5020673;28;20087;-76
2023/08/17 06:35:11;;;;;;;3.28;1.40;;;;;;;;;;5015464;28;20032;-75
2023/08/17 06:37:37;;;;;;;2.90;1.30;;;;;;;;;;5008775;28;20425;-76
2023/08/17 06:40:05;;;;;;;3.85;1.30;;;;;;;;;;5006500;28;20531;-77
2023/08/17 06:42:30;;;;;;;3.50;1.75;;;;;;;;;;5002296;28;20018;-77
2023/08/17 06:44:56;;;;;;;2.90;1.20;;;;;;;;;;5007516;28;20022;-75
2023/08/17 06:47:21;;;;;;;4.50;1.35;;;;;;;;;;5005276;28;20054;-76
2023/08/17 06:49:46;;;;;;;5.97;1.60;;;;;;;;;;5001504;28;20564;-76
2023/08/17 06:52:12;;;;;;;2.72;1.27;;;;;;;;;;5010431;28;20037;-76
2023/08/17 06:54:37;;;;;;;2.65;1.40;;;;;;;;;;5011139;28;20123;-77
2023/08/17 06:57:03;;;;;;;2.40;1.20;;;;;;;;;;5008239;28;20018;-76
2023/08/17 06:59:28;;;;;;;4.55;1.38;;;;;;;;;;5033682;28;20156;-77
2023/08/17 07:01:55;;;;;;;2.95;1.30;;;;;;;;;;5009729;28;20490;-76
2023/08/17 07:04:20;;;;;;;3.53;1.42;;;;;;;;;;5007696;28;20084;-76
2023/08/17 07:06:45;;;;;;;4.45;1.40;;;;;;;;;;5010615;28;20032;-76
2023/08/17 07:09:12;;;;;;;4.10;1.35;;;;;;;;;;5010343;28;20029;-76
2023/08/17 07:11:38;;;;;;;4.10;1.40;;;;;;;;;;5009588;28;20018;-76
2023/08/17 07:14:06;;;;;;;5.05;1.50;;;;;;;;;;5012634;28;20037;-76
2023/08/17 07:16:31;;;;;;;2.50;1.20;;;;;;;;;;5008025;28;20033;-76
2023/08/17 07:18:57;;;;;;;3.20;1.27;;;;;;;;;;5011245;28;20022;-76
2023/08/17 07:21:22;;;;;;;4.47;1.30;;;;;;;;;;5010894;28;20025;-77
2023/08/17 07:23:49;;;;;;;5.43;1.75;;;;;;;;;;5010759;28;20047;-77
2023/08/17 07:26:14;;;;;;;3.42;1.50;;;;;;;;;;5010434;28;20490;-76
2023/08/17 07:28:40;;;;;;;3.63;1.30;;;;;;;;;;5008167;28;20057;-76
2023/08/17 07:31:05;;;;;;;3.10;1.30;;;;;;;;;;5007246;28;20033;-79
2023/08/17 07:33:31;;;;;;;3.63;1.40;;;;;;;;;;5001107;28;20116;-77
2023/08/17 07:35:58;;;;;;;2.95;1.33;;;;;;;;;;5012351;28;20034;-76
2023/08/17 07:38:23;;;;;;;6.05;1.55;;;;;;;;;;5009178;28;20021;-77
2023/08/17 07:40:49;;;;;;;5.65;1.85;;;;;;;;;;5010044;28;20398;-76
2023/08/17 07:43:14;;;;;;;4.95;1.77;;;;;;;;;;5005645;28;20022;-82
2023/08/17 07:45:39;;;;;;;4.72;1.52;;;;;;;;;;5010278;28;20067;-83
2023/08/17 07:48:05;;;;;;;5.35;1.80;;;;;;;;;;5010925;28;20061;-84
2023/08/17 07:50:30;;;;;;;3.28;1.52;;;;;;;;;;5002338;28;20022;-83
2023/08/17 07:52:56;;;;;;;3.60;1.70;;;;;;;;;;5012501;28;20070;-82
2023/08/17 07:55:21;;;;;;;4.30;1.70;;;;;;;;;;5010751;28;20049;-82
2023/08/17 07:57:46;;;;;;;3.55;1.65;;;;;;;;;;5007487;28;20018;-82
2023/08/17 08:00:12;;;;;;;3.78;1.60;;;;;;;;;;5004854;28;20377;-83
2023/08/17 08:02:38;;;;;;;6.20;1.98;;;;;;;;;;5008511;28;20065;-84
2023/08/17 08:05:03;;;;;;;4.47;2.10;;;;;;;;;;5007703;28;20106;-83
2023/08/17 08:07:29;;;;;;;5.15;1.90;;;;;;;;;;5009777;28;20037;-83
2023/08/17 08:09:54;;;;;;;3.88;1.90;;;;;;;;;;5007927;28;20121;-82
2023/08/17 08:12:19;;;;;;;2.85;1.67;;;;;;;;;;5017699;28;20026;-84
2023/08/17 08:14:45;;;;;;;5.65;1.83;;;;;;;;;;5004921;28;20033;-82
2023/08/17 08:17:10;;;;;;;4.85;1.85;;;;;;;;;;5013936;28;20436;-85
2023/08/17 08:19:35;;;;;;;4.53;2.28;;;;;;;;;;5007970;28;20018;-84
2023/08/17 08:22:02;;;;;;;4.22;1.67;;;;;;;;;;5019012;28;20552;-83
2023/08/17 08:24:33;;;;;;;5.55;1.70;;;;;;;;;;5012649;28;20021;-83
2023/08/17 08:26:58;;;;;;;4.88;1.60;;;;;;;;;;5012392;28;20025;-83
2023/08/17 08:29:24;;;;;;;2.47;1.60;;;;;;;;;;5010124;28;20031;-83
2023/08/17 08:31:49;;;;;;;3.00;1.88;;;;;;;;;;5007617;28;20099;-83
2023/08/17 08:34:14;;;;;;;3.90;1.88;;;;;;;;;;5008505;28;20500;-86
2023/08/17 08:36:40;;;;;;;3.22;1.55;;;;;;;;;;5011814;28;20026;-84
2023/08/17 08:39:05;;;;;;;5.78;2.10;;;;;;;;;;5027677;28;20060;-86
2023/08/17 08:41:31;;;;;;;3.88;1.60;;;;;;;;;;5010095;28;20036;-87
2023/08/17 08:43:57;;;;;;;3.92;1.77;;;;;;;;;;5014608;28;20025;-86
2023/08/17 08:46:26;;;;;;;6.82;1.75;;;;;;;;;;5005933;28;20533;-85
2023/08/17 08:48:54;;;;;;;3.65;1.58;;;;;;;;;;5003386;28;20475;-86
2023/08/17 08:51:26;;;;;;;3.53;1.60;;;;;;;;;;5011146;28;20029;-83
2023/08/17 08:54:04;;;;;;;5.25;2.00;;;;;;;;;;5006827;28;20120;-83
2023/08/17 08:56:34;;;;;;;4.85;1.77;;;;;;;;;;5005820;28;20030;-84
2023/08/17 08:59:04;;;;;;;6.10;1.52;;;;;;;;;;5006100;28;20025;-84
2023/08/17 09:01:31;;;;;;;4.45;1.52;;;;;;;;;;5004404;28;21415;-84
2023/08/17 09:03:59;;;;;;;4.35;1.75;;;;;;;;;;5013993;28;20114;-84
2023/08/17 09:06:27;;;;;;;4.05;1.90;;;;;;;;;;5011937;28;20040;-84
2023/08/17 09:08:52;;;;;;;3.92;1.85;;;;;;;;;;5007698;28;20116;-83
2023/08/17 09:11:17;;;;;;;4.25;1.80;;;;;;;;;;5008022;28;20545;-84
2023/08/17 09:13:43;;;;;;;2.70;1.55;;;;;;;;;;5005123;28;20033;-83
2023/08/17 09:16:08;;;;;;;3.45;2.00;;;;;;;;;;5006298;28;20037;-83
2023/08/17 09:18:35;;;;;;;5.55;2.00;;;;;;;;;;5012406;28;20477;-84
2023/08/17 09:21:01;;;;;;;4.28;1.48;;;;;;;;;;5005834;28;20061;-84
2023/08/17 09:23:27;;;;;;;6.93;2.95;;;;;;;;;;5007344;28;20405;-84
2023/08/17 09:25:57;;;;;;;4.80;2.00;;;;;;;;;;5003785;28;20037;-83
2023/08/17 09:28:23;;;;;;;3.90;1.83;;;;;;;;;;5009064;28;20036;-83
2023/08/17 09:30:56;;;;;;;3.17;1.70;;;;;;;;;;5004734;28;20381;-83
2023/08/17 09:33:30;;;;;;;3.55;1.63;;;;;;;;;;5012252;28;20038;-85
2023/08/17 09:35:57;;;;;;;5.57;1.98;;;;;;;;;;5008866;28;20084;-84
2023/08/17 09:38:22;;;;;;;2.78;1.80;;;;;;;;;;5010268;28;20389;-79
2023/08/17 09:40:48;;;;;;;6.40;2.22;;;;;;;;;;5008576;28;20045;-82
2023/08/17 09:43:14;;;;;;;5.95;2.33;;;;;;;;;;5006347;28;20438;-76
2023/08/17 09:45:40;;;;;;;5.45;2.55;;;;;;;;;;5006147;28;20030;-76
2023/08/17 09:48:09;;;;;;;5.78;2.58;;;;;;;;;;5007184;28;20030;-75
2023/08/17 09:50:35;;;;;;;6.97;2.30;;;;;;;;;;5005925;28;20034;-78
2023/08/17 09:53:04;;;;;;;4.13;2.10;;;;;;;;;;5009078;28;20437;-76
2023/08/17 09:55:37;;;;;;;5.57;2.20;;;;;;;;;;5006944;28;20056;-76
2023/08/17 09:58:02;;;;;;;5.70;2.70;;;;;;;;;;5001147;28;20120;-76
2023/08/17 10:00:29;;;;;;;7.18;2.63;;;;;;;;;;5007042;28;20110;-77
2023/08/17 10:02:58;;;;;;;5.05;2.10;;;;;;;;;;5009888;28;20085;-87
2023/08/17 10:05:28;;;;;;;4.78;2.70;;;;;;;;;;5009021;28;20044;-87
2023/08/17 10:07:56;;;;;;;5.07;2.40;;;;;;;;;;5005046;28;20025;-86
2023/08/17 10:10:25;;;;;;;4.30;2.50;;;;;;;;;;5011385;28;20156;-82
2023/08/17 10:13:09;;;;;;;6.00;2.60;;;;;;;;;;5014640;28;20164;-86
2023/08/17 10:15:39;;;;;;;6.05;2.70;;;;;;;;;;5008454;28;20434;-87
2023/08/17 10:18:21;;;;;;;5.70;2.97;;;;;;;;;;5011221;28;20034;-84
2023/08/17 10:21:01;;;;;;;6.17;2.83;;;;;;;;;;5009061;28;20060;-86
2023/08/17 10:23:27;;;;;;;6.88;3.45;;;;;;;;;;5008493;28;20096;-84
2023/08/17 10:25:53;;;;;;;5.55;3.00;;;;;;;;;;5009078;28;20083;-85
2023/08/17 10:28:23;;;;;;;9.07;3.63;;;;;;;;;;5007839;28;20033;-86
2023/08/17 10:30:48;;;;;;;7.25;3.70;;;;;;;;;;5007112;28;20529;-82
2023/08/17 10:33:14;;;;;;;8.27;3.80;;;;;;;;;;5021251;28;20037;-87
2023/08/17 10:35:41;;;;;;;7.25;3.40;;;;;;;;;;5029231;28;20025;-86
2023/08/17 10:38:07;;;;;;;6.82;3.50;;;;;;;;;;5013910;28;20030;-86
2023/08/17 10:40:37;;;;;;;6.63;3.22;;;;;;;;;;5002751;28;20521;-82
2023/08/17 10:43:03;;;;;;;7.32;3.17;;;;;;;;;;5006542;28;20489;-85
2023/08/17 10:45:29;;;;;;;6.53;3.65;;;;;;;;;;5004495;28;20026;-86
2023/08/17 10:48:06;;;;;;;7.00;3.00;;;;;;;;;;5021804;28;20033;-80
2023/08/17 10:50:35;;;;;;;6.85;3.60;;;;;;;;;;5000454;28;20160;-85
2023/08/17 10:53:12;;;;;;;6.40;3.20;;;;;;;;;;5002455;28;20037;-75
2023/08/17 10:55:42;;;;;;;8.50;3.85;;;;;;;;;;5018738;28;20034;-76
2023/08/17 10:58:08;;;;;;;9.40;4.05;;;;;;;;;;5012139;28;20108;-77
2023/08/17 11:00:36;;;;;;;9.00;3.67;;;;;;;;;;5005917;28;20513;-75
2023/08/17 11:03:08;;;;;;;6.07;3.08;;;;;;;;;;5006502;28;20366;-75
2023/08/17 11:05:58;;;;;;;7.07;4.25;;;;;;;;;;5000118;28;20025;-76
2023/08/17 11:08:43;;;;;;;6.30;3.65;;;;;;;;;;5027077;28;20030;-76
2023/08/17 11:11:14;;;;;;;9.82;4.00;;;;;;;;;;5008460;28;20030;-86
2023/08/17 11:13:42;;;;;;;11.32;4.30;;;;;;;;;;5013339;28;20033;-76
2023/08/17 11:16:10;;;;;;;8.10;3.92;;;;;;;;;;5013886;28;20061;-76
2023/08/17 11:18:35;;;;;;;7.60;3.80;;;;;;;;;;5010789;28;20401;-76
2023/08/17 11:21:09;;;;;;;6.88;3.50;;;;;;;;;;5015363;28;20030;-76
2023/08/17 11:23:37;;;;;;;8.57;4.22;;;;;;;;;;5005769;28;20034;-76
2023/08/17 11:26:03;;;;;;;6.35;3.70;;;;;;;;;;5011783;28;20132;-76
2023/08/17 11:28:36;;;;;;;7.38;3.88;;;;;;;;;;5013051;28;20021;-76
2023/08/17 11:31:04;;;;;;;7.93;4.30;;;;;;;;;;5007954;28;20035;-77
2023/08/17 11:33:31;;;;;;;8.77;4.15;;;;;;;;;;5018338;28;20155;-77
2023/08/17 11:36:05;;;;;;;8.55;4.43;;;;;;;;;;5007221;28;20070;-77
2023/08/17 11:38:39;;;;;;;7.28;4.38;;;;;;;;;;5009020;28;20026;-77
2023/08/17 11:41:06;;;;;;;7.40;4.43;;;;;;;;;;5006234;28;20294;-79
2023/08/17 11:43:32;;;;;;;10.48;4.80;;;;;;;;;;5017802;28;20037;-77
2023/08/17 11:45:59;;;;;;;7.03;4.28;;;;;;;;;;5026602;28;20115;-77
2023/08/17 11:48:25;;;;;;;8.38;4.32;;;;;;;;;;5011123;28;20462;-77
2023/08/17 11:50:51;;;;;;;6.55;3.78;;;;;;;;;;5010971;28;20049;-76
2023/08/17 11:53:17;;;;;;;7.60;4.30;;;;;;;;;;5008769;28;20026;-77
2023/08/17 11:55:43;;;;;;;6.88;4.40;;;;;;;;;;5004827;28;20048;-78
2023/08/17 11:58:08;;;;;;;10.07;5.15;;;;;;;;;;5005307;28;20061;-78
2023/08/17 12:00:41;;;;;;;8.40;4.57;;;;;;;;;;5008915;28;20037;-78
2023/08/17 12:03:06;;;;;;;8.25;4.90;;;;;;;;;;5020514;28;20026;-76
2023/08/17 12:05:32;;;;;;;7.28;4.22;;;;;;;;;;5009212;28;20036;-75
2023/08/17 12:08:01;;;;;;;9.77;4.53;;;;;;;;;;5008164;28;20404;-76
2023/08/17 12:10:28;;;;;;;10.13;4.57;;;;;;;;;;5007901;28;20085;-76
2023/08/17 12:12:56;;;;;;;7.80;4.32;;;;;;;;;;5027696;28;20018;-76
2023/08/17 12:15:22;;;;;;;8.70;4.95;;;;;;;;;;5007643;28;20500;-76
2023/08/17 12:17:48;;;;;;;7.07;4.65;;;;;;;;;;5006295;28;20021;-77
2023/08/17 12:20:21;;;;;;;9.07;4.80;;;;;;;;;;5012228;28;20381;-76
2023/08/17 12:22:47;;;;;;;;;;;;;;;;;;5012419;28;20033;-82
2023/08/17 12:25:13;;;;;;;8.45;4.45;;;;;;;;;;5006783;28;21475;-85
2023/08/17 12:27:39;;;;;;;7.28;3.90;;;;;;;;;;5011248;28;20061;-84
2023/08/17 12:30:11;;;;;;;7.25;3.90;;;;;;;;;;5007525;28;20076;-83
2023/08/17 12:32:36;;;;;;;7.47;4.32;;;;;;;;;;5011444;28;20041;-84
2023/08/17 12:35:03;;;;;;;7.70;3.70;;;;;;;;;;5011161;28;20036;-85
2023/08/17 12:37:29;;;;;;;8.15;3.67;;;;;;;;;;5005810;28;20298;-85
2023/08/17 12:39:54;;;;;;;6.85;4.00;;;;;;;;;;5000433;28;20050;-83
2023/08/17 12:42:20;;;;;;;7.47;3.60;;;;;;;;;;5009872;28;20068;-85
2023/08/17 12:44:45;;;;;;;9.55;4.18;;;;;;;;;;5011712;28;20030;-85
2023/08/17 12:47:10;;;;;;;8.40;4.00;;;;;;;;;;5006739;28;20556;-83
2023/08/17 12:49:36;;;;;;;7.72;4.13;;;;;;;;;;5004314;28;20385;-82
2023/08/17 12:52:02;;;;;;;6.13;3.97;;;;;;;;;;5007169;28;20069;-81
2023/08/17 12:54:27;;;;;;;6.95;3.42;;;;;;;;;;5013687;28;20029;-83
2023/08/17 12:56:52;;;;;;;6.93;3.55;;;;;;;;;;5011245;28;20065;-85
2023/08/17 12:59:18;;;;;;;8.27;3.75;;;;;;;;;;5006051;28;20029;-84
2023/08/17 13:01:43;;;;;;;7.28;3.53;;;;;;;;;;5007991;28;20028;-85
2023/08/17 13:04:09;;;;;;;8.43;4.10;;;;;;;;;;5008722;28;20041;-85
2023/08/17 13:06:34;;;;;;;7.78;4.05;;;;;;;;;;5007245;28;20032;-83
2023/08/17 13:08:59;;;;;;;7.75;4.00;;;;;;;;;;5012489;28;20482;-84
2023/08/17 13:11:25;;;;;;;9.73;4.70;;;;;;;;;;5006891;28;20017;-75
2023/08/17 13:13:50;;;;;;;10.20;4.43;;;;;;;;;;5005587;28;20033;-76
2023/08/17 13:16:16;;;;;;;5.68;3.65;;;;;;;;;;5006742;28;20029;-76
2023/08/17 13:18:41;;;;;;;8.35;3.55;;;;;;;;;;5002304;28;20022;-76
2023/08/17 13:21:06;;;;;;;7.55;4.10;;;;;;;;;;5005666;28;20025;-76
2023/08/17 13:23:32;;;;;;;9.27;4.00;;;;;;;;;;5007653;28;20026;-76
2023/08/17 13:25:58;;;;;;;8.57;4.40;;;;;;;;;;5007278;28;20034;-77
2023/08/17 13:28:23;;;;;;;7.45;4.43;;;;;;;;;;5001452;28;20029;-75
2023/08/17 13:30:48;;;;;;;8.55;4.55;;;;;;;;;;5006705;28;20032;-77
2023/08/17 13:33:16;;;;;;;7.35;4.32;;;;;;;;;;5002605;28;20041;-84
2023/08/17 13:35:41;;;;;;;6.20;3.70;;;;;;;;;;5007821;28;20025;-83
2023/08/17 13:38:07;;;;;;;10.05;4.30;;;;;;;;;;5004651;28;20328;-80
2023/08/17 13:40:33;;;;;;;7.93;4.65;;;;;;;;;;5012172;28;20096;-84
2023/08/17 13:42:59;;;;;;;8.75;4.88;;;;;;;;;;5010378;28;20405;-84
2023/08/17 13:45:24;;;;;;;8.25;4.45;;;;;;;;;;5008813;28;20041;-84
2023/08/17 13:47:50;;;;;;;8.65;4.70;;;;;;;;;;5007950;28;20032;-85
2023/08/17 13:50:15;;;;;;;7.07;4.70;;;;;;;;;;5002536;28;20029;-83
2023/08/17 13:52:41;;;;;;;7.40;4.97;;;;;;;;;;5006622;28;20057;-84
2023/08/17 13:55:07;;;;;;;8.40;4.30;;;;;;;;;;5003586;28;20063;-85
2023/08/17 13:57:32;;;;;;;7.88;4.63;;;;;;;;;;5006984;28;20390;-84
2023/08/17 13:59:57;;;;;;;8.32;4.45;;;;;;;;;;5000686;28;20030;-84
2023/08/17 14:02:23;;;;;;;7.30;4.80;;;;;;;;;;5008767;28;20113;-85
2023/08/17 14:04:48;;;;;;;7.28;4.32;;;;;;;;;;5007804;28;20041;-84
2023/08/17 14:07:14;;;;;;;8.10;5.18;;;;;;;;;;5002218;28;20034;-82
2023/08/17 14:09:39;;;;;;;8.20;4.70;;;;;;;;;;5005392;28;20026;-84
2023/08/17 14:12:05;;;;;;;8.52;5.05;;;;;;;;;;5009950;28;20037;-84
2023/08/17 14:14:31;;;;;;;7.00;4.35;;;;;;;;;;5006565;28;20467;-85
2023/08/17 14:16:56;;;;;;;7.13;4.55;;;;;;;;;;5003766;28;20505;-85
2023/08/17 14:19:22;;;;;;;8.68;4.88;;;;;;;;;;5003000;28;20030;-80
2023/08/17 14:21:48;;;;;;;10.13;4.50;;;;;;;;;;5007556;28;20073;-83
2023/08/17 14:24:16;;;;;;;6.35;4.25;;;;;;;;;;5004158;28;20061;-84
2023/08/17 14:26:41;;;;;;;8.45;4.95;;;;;;;;;;5011646;28;20026;-82
2023/08/17 14:29:07;;;;;;;9.15;5.60;;;;;;;;;;5007052;28;20034;-83
2023/08/17 14:31:32;;;;;;;8.75;5.75;;;;;;;;;;5005705;28;20026;-82
2023/08/17 14:33:58;;;;;;;9.18;4.95;;;;;;;;;;5004481;28;20049;-84
2023/08/17 14:36:23;;;;;;;8.57;5.05;;;;;;;;;;5012696;28;20171;-78
2023/08/17 14:38:48;;;;;;;8.63;5.10;;;;;;;;;;5004042;28;20025;-81